createdAt,value
2023-01-19T00:02:44.714Z,0.57
2023-01-19T00:07:46.212Z,0.6
2023-01-19T00:12:47.291Z,0.57
2023-01-19T00:17:48.810Z,0.51
2023-01-19T00:22:50.428Z,0.51
2023-01-19T00:27:51.718Z,0.52
2023-01-19T00:32:53.315Z,0.58
2023-01-19T00:37:54.621Z,0.54
2023-01-19T00:42:56.706Z,0.5
2023-01-19T00:47:58.548Z,0.52
2023-01-19T00:53:00.145Z,0.55
2023-01-19T00:58:01.271Z,0.52
2023-01-19T01:03:03.033Z,0.5
2023-01-19T01:08:03.863Z,0.5
2023-01-19T01:13:20.079Z,0.52
2023-01-19T01:18:07.562Z,0.49
2023-01-19T01:23:09.453Z,0.46
2023-01-19T01:28:11.302Z,0.47
2023-01-19T01:33:13.120Z,0.47
2023-01-19T01:38:14.951Z,0.48
2023-01-19T01:43:16.787Z,0.42
2023-01-19T01:48:18.296Z,0.38
2023-01-19T01:53:20.121Z,0.4
2023-01-19T01:58:21.997Z,0.39
2023-01-19T02:03:24.266Z,0.34
2023-01-19T02:08:26.118Z,0.27
2023-01-19T02:13:27.741Z,0.28
2023-01-19T02:18:29.256Z,0.31
2023-01-19T02:23:31.266Z,0.3
2023-01-19T02:28:33.298Z,0.24
2023-01-19T02:33:34.818Z,0.22
2023-01-19T02:38:36.113Z,0.26
2023-01-19T02:43:37.739Z,0.25
2023-01-19T02:48:39.769Z,0.18
2023-01-19T02:53:41.337Z,0.08
2023-01-19T02:58:43.060Z,0.1
2023-01-19T03:03:45.203Z,0.13
2023-01-19T03:08:46.486Z,0.1
2023-01-19T03:13:48.532Z,0.02
2023-01-19T03:18:50.122Z,-0.01
2023-01-19T03:23:52.353Z,0.02
2023-01-19T03:28:53.813Z,-0.01
2023-01-19T03:33:55.469Z,-0.05
2023-01-19T03:38:57.056Z,-0.07
2023-01-19T03:43:59.177Z,-0.08
2023-01-19T03:49:00.829Z,-0.07
2023-01-19T03:54:02.856Z,-0.14
2023-01-19T03:59:05.167Z,-0.26
2023-01-19T04:04:06.185Z,-0.27
2023-01-19T04:09:07.876Z,-0.27
2023-01-19T04:14:09.628Z,-0.31
2023-01-19T04:19:11.404Z,-0.39
2023-01-19T04:24:13.050Z,-0.45
2023-01-19T04:29:15.132Z,-0.45
2023-01-19T04:34:17.068Z,-0.46
2023-01-19T04:39:18.557Z,-0.54
2023-01-19T04:44:19.995Z,-0.65
2023-01-19T04:49:21.394Z,-0.69
2023-01-19T04:54:23.593Z,-0.73
2023-01-19T04:59:24.825Z,-0.83
2023-01-19T05:04:26.764Z,-0.92
2023-01-19T05:09:28.200Z,-0.99
2023-01-19T05:14:29.738Z,-1.04
2023-01-19T05:19:31.735Z,-1.04
2023-01-19T05:24:32.933Z,-1.1
2023-01-19T05:29:34.917Z,-1.22
2023-01-19T05:34:36.551Z,-1.28
2023-01-19T05:39:38.306Z,-1.27
2023-01-19T05:44:40.054Z,-1.3
2023-01-19T05:49:42.010Z,-1.34
2023-01-19T05:54:43.873Z,-1.35
2023-01-19T05:59:45.582Z,-1.33
2023-01-19T06:04:46.843Z,-1.28
2023-01-19T06:09:48.519Z,-1.22
2023-01-19T06:14:50.804Z,-1.16
2023-01-19T06:19:52.108Z,-1.12
2023-01-19T06:24:54.160Z,-1.05
2023-01-19T06:29:55.381Z,-0.99
2023-01-19T06:34:56.679Z,-0.98
2023-01-19T06:39:58.824Z,-1
2023-01-19T06:45:00.545Z,-0.97
2023-01-19T06:50:02.465Z,-0.91
2023-01-19T06:55:04.125Z,-0.92
2023-01-19T07:00:05.744Z,-0.92
2023-01-19T07:05:06.953Z,-0.92
2023-01-19T07:10:08.945Z,-0.88
2023-01-19T07:15:10.819Z,-0.83
2023-01-19T07:20:12.332Z,-0.8
2023-01-19T07:50:23.415Z,-0.88
2023-01-19T07:55:24.841Z,-0.83
2023-01-19T08:05:27.803Z,-0.51
2023-01-19T08:10:29.866Z,-0.41
2023-01-19T08:25:34.418Z,0.03
2023-01-19T08:35:37.905Z,0.23
2023-01-19T08:40:39.875Z,0.33
2023-01-19T08:45:41.189Z,0.54
2023-01-19T08:50:43.115Z,0.67
2023-01-19T08:55:45.084Z,0.76
2023-01-19T09:00:47.107Z,0.85
2023-01-19T09:05:48.821Z,0.95
2023-01-19T09:10:50.396Z,1.08
2023-01-19T09:15:51.986Z,1.15
2023-01-19T09:20:59.559Z,1.22
2023-01-19T09:26:01.087Z,1.46
2023-01-19T09:31:02.435Z,2.04
2023-01-19T09:36:04.013Z,2.44
2023-01-19T09:41:06.136Z,3.08
2023-01-19T09:46:08.388Z,3.81
2023-01-19T09:51:09.616Z,4.81
2023-01-19T09:56:11.065Z,5.23
2023-01-19T10:01:13.252Z,5.7
2023-01-19T10:06:14.683Z,5.72
2023-01-19T10:11:16.330Z,5.98
2023-01-19T10:16:18.364Z,6.52
2023-01-19T10:21:19.489Z,6.88
2023-01-19T10:26:21.257Z,7.48
2023-01-19T10:31:22.888Z,8.39
2023-01-19T10:36:24.624Z,8.6
2023-01-19T10:41:26.610Z,7.96
2023-01-19T10:46:28.618Z,7.87
2023-01-19T10:51:29.795Z,8.22
2023-01-19T10:56:31.987Z,8.88
2023-01-19T11:01:33.492Z,8.91
2023-01-19T11:06:35.424Z,8.64
2023-01-19T11:11:37.003Z,8.6
2023-01-19T11:16:38.306Z,8.37
2023-01-19T11:21:39.874Z,8.37
2023-01-19T11:26:41.997Z,7.86
2023-01-19T11:31:44.213Z,7.19
2023-01-19T11:36:45.900Z,7.03
2023-01-19T11:41:47.979Z,6.96
2023-01-19T11:46:50.302Z,6.52
2023-01-19T11:51:51.878Z,6.14
2023-01-19T11:56:53.936Z,5.83
2023-01-19T12:01:56.003Z,5.78
2023-01-19T12:06:57.780Z,5.68
2023-01-19T12:11:59.175Z,5.41
2023-01-19T12:17:00.997Z,5.23
2023-01-19T12:22:02.334Z,5.07
2023-01-19T12:27:04.191Z,4.87
2023-01-19T12:32:06.377Z,4.61
2023-01-19T12:37:08.308Z,4.3
2023-01-19T12:42:10.295Z,4.23
2023-01-19T12:47:11.593Z,4.23
2023-01-19T12:52:12.855Z,4.13
2023-01-19T12:57:14.490Z,4.03
2023-01-19T13:02:16.101Z,4
2023-01-19T13:07:17.884Z,4.05
2023-01-19T13:12:19.882Z,4.06
2023-01-19T13:17:21.869Z,3.97
2023-01-19T13:22:23.162Z,3.87
2023-01-19T13:27:25.104Z,3.84
2023-01-19T13:32:27.068Z,3.76
2023-01-19T13:37:28.948Z,3.61
2023-01-19T13:42:30.512Z,3.47
2023-01-19T13:47:32.522Z,3.46
2023-01-19T13:52:33.713Z,3.44
2023-01-19T13:57:35.688Z,3.29
2023-01-19T14:02:37.163Z,3.17
2023-01-19T14:07:38.501Z,3.16
2023-01-19T14:12:51.304Z,3.17
2023-01-19T14:17:41.971Z,3.14
2023-01-19T14:22:43.671Z,3.03
2023-01-19T14:27:45.581Z,2.97
2023-01-19T14:32:47.420Z,2.97
2023-01-19T14:37:49.052Z,2.96
2023-01-19T14:42:50.350Z,2.88
2023-01-19T14:47:51.745Z,2.8
2023-01-19T14:52:53.441Z,2.79
2023-01-19T14:57:55.122Z,2.78
2023-01-19T15:02:56.416Z,2.68
2023-01-19T15:07:58.127Z,2.48
2023-01-19T15:12:59.828Z,2.44
2023-01-19T15:18:01.911Z,2.44
2023-01-19T15:23:03.376Z,2.39
2023-01-19T15:28:05.040Z,2.25
2023-01-19T15:33:06.617Z,2.18
2023-01-19T15:38:08.059Z,2.17
2023-01-19T15:43:09.508Z,2.18
2023-01-19T15:48:11.386Z,2.07
2023-01-19T15:53:13.372Z,1.97
2023-01-19T15:58:14.925Z,1.93
2023-01-19T16:03:16.893Z,1.93
2023-01-19T16:08:18.782Z,1.89
2023-01-19T16:13:20.348Z,1.83
2023-01-19T16:18:22.001Z,1.8
2023-01-19T16:23:24.082Z,1.81
2023-01-19T16:28:25.422Z,1.78
2023-01-19T16:33:27.059Z,1.69
2023-01-19T16:38:28.373Z,1.61
2023-01-19T16:43:30.139Z,1.61
2023-01-19T16:48:31.874Z,1.62
2023-01-19T16:53:33.298Z,1.58
2023-01-19T16:58:35.184Z,1.54
2023-01-19T17:03:36.491Z,1.51
2023-01-19T17:08:38.405Z,1.49
2023-01-19T17:13:39.736Z,1.48
2023-01-19T17:18:41.557Z,1.45
2023-01-19T17:23:43.345Z,1.48
2023-01-19T17:28:45.102Z,1.62
2023-01-19T17:33:46.999Z,1.76
2023-01-19T17:38:48.583Z,1.74
2023-01-19T17:43:49.890Z,1.7
2023-01-19T17:48:51.962Z,1.67
2023-01-19T17:53:54.011Z,1.64
2023-01-19T17:58:55.440Z,1.53
2023-01-19T18:03:57.186Z,1.46
2023-01-19T18:08:58.749Z,1.46
2023-01-19T18:14:00.560Z,1.48
2023-01-19T18:19:01.895Z,1.46
2023-01-19T18:24:03.711Z,1.4
2023-01-19T18:29:05.225Z,1.36
2023-01-19T18:34:06.686Z,1.35
2023-01-19T18:39:07.909Z,1.33
2023-01-19T18:44:09.321Z,1.25
2023-01-19T18:49:11.186Z,1.21
2023-01-19T18:54:13.134Z,1.19
2023-01-19T18:59:15.226Z,1.17
2023-01-19T19:04:16.780Z,1.16
2023-01-19T19:09:17.783Z,1.11
2023-01-19T19:14:19.094Z,1.1
2023-01-19T19:19:20.524Z,1.1
2023-01-19T19:24:21.869Z,1.09
2023-01-19T19:29:23.680Z,1.04
2023-01-19T19:34:24.711Z,1.03
2023-01-19T19:39:26.549Z,1.01
2023-01-19T19:44:28.547Z,0.99
2023-01-19T19:49:30.123Z,0.92
2023-01-19T19:54:31.908Z,0.86
2023-01-19T19:59:33.949Z,0.86
2023-01-19T20:04:35.025Z,0.87
2023-01-19T20:09:36.293Z,0.87
2023-01-19T20:14:37.535Z,0.84
2023-01-19T20:19:39.433Z,0.83
2023-01-19T20:24:41.063Z,0.85
2023-01-19T20:29:43.231Z,0.86
2023-01-19T20:34:44.737Z,0.85
2023-01-19T20:39:46.349Z,0.82
2023-01-19T20:44:48.084Z,0.8
2023-01-19T20:49:50.144Z,0.82
2023-01-19T20:54:52.254Z,0.8
2023-01-19T20:59:54.012Z,0.78
2023-01-19T21:04:55.444Z,0.78
2023-01-19T21:09:56.479Z,0.77
2023-01-19T21:14:58.687Z,0.72
2023-01-19T21:20:00.391Z,0.69
2023-01-19T21:25:02.079Z,0.68
2023-01-19T21:30:03.545Z,0.67
2023-01-19T21:35:04.791Z,0.68
2023-01-19T21:40:06.757Z,0.65
2023-01-19T21:45:08.615Z,0.58
2023-01-19T21:50:10.761Z,0.58
2023-01-19T22:50:31.932Z,0.37
2023-01-19T23:00:36.081Z,0.28
2023-01-19T23:05:38.136Z,0.21
2023-01-19T23:10:39.378Z,0.17
2023-01-19T23:15:41.331Z,0.1
2023-01-19T23:20:42.929Z,0.02
2023-01-19T23:25:44.861Z,-0.1
2023-01-19T23:30:46.429Z,-0.17
2023-01-19T23:35:48.263Z,-0.2
2023-01-19T23:40:50.106Z,-0.22
2023-01-19T23:45:51.550Z,-0.21
2023-01-19T23:50:53.676Z,-0.26
2023-01-19T23:55:55.082Z,-0.3
